Aviation Digital Data Service (ADDS)

Output produced by METARs form (2058 UTC 31 January 2023)
found at http://www.aviationweather.gov/metar/data/
 
KLNS 312053Z 04004KT 10SM FEW023 OVC050 02/M01 A3019 RMK AO2 UPB13E28SNE09 SLP227 P0001 60001 T00221006 55008
KLNS 312027Z 02004KT 5SM UP BR FEW008 SCT012 OVC050 02/00 A3019 RMK AO2 UPB13SNE09 P0001 T00170000
KLNS 312015Z 02006KT 5SM UP BR SCT008 BKN012 OVC050 02/M01 A3019 RMK AO2 UPB13SNE09 P0001 T00171006
KLNS 312007Z 33003KT 5SM -SN BR FEW010 BKN037 OVC050 02/M01 A3019 RMK AO2 P0001 T00171006
KLNS 311956Z 32005KT 2 1/2SM -SN BR FEW009 OVC033 02/M01 A3019 RMK AO2 VIS 2V4 P0001 T00171006
KLNS 311953Z 32006KT 3SM -SN BR OVC033 02/M01 A3019 RMK AO2 SLP226 P0000 T00171006
KLNS 311932Z 32006KT 3SM -SN OVC031 02/M01 A3019 RMK AO2 P0000 T00221006
KLNS 311929Z 32006KT 2 1/2SM -SN OVC029 02/M01 A3019 RMK AO2 P0000 T00221006
KLNS 311853Z 32004KT 5SM -SN FEW028 BKN034 OVC042 02/M01 A3019 RMK AO2 SLP228 P0000 T00221011
KLNS 311753Z 35006KT 8SM -SN FEW032 BKN039 OVC050 03/M02 A3022 RMK AO2 SNE14B37 SLP234 P0000 60000 T00331022 10039 20033 58006
KLNS 311653Z 34007KT 10SM -SN OVC065 04/M03 A3023 RMK AO2 SNB49 SLP237 P0000 T00391028
KLNS 311553Z 35007KT 10SM OVC065 04/M03 A3023 RMK AO2 SLP240 T00391028
KLNS 311453Z 31006KT 10SM SCT015 BKN070 OVC090 03/M02 A3023 RMK AO2 SLP240 60000 T00331017 51015
KLNS 311353Z 34006KT 10SM OVC075 03/M01 A3023 RMK AO2 SLP238 T00331011
KLNS 311253Z 34008KT 10SM SCT020 OVC060 03/M01 A3021 RMK AO2 RAB40E51 SLP231 P0000 T00331006
KLNS 311227Z 32008KT 10SM SCT019 OVC055 03/00 A3020 RMK AO2 T00330000
KLNS 311210Z 33006KT 10SM BKN021 OVC050 03/01 A3020 RMK AO2 T00330006
KLNS 311153Z 34006KT 10SM SCT012 OVC050 03/01 A3019 RMK AO2 RAE01 SLP226 P0000 60000 T00330006 10083 20033 53032
KLNS 311124Z 34011KT 10SM FEW017 SCT022 OVC047 04/01 A3018 RMK AO2 RAE01 PRESRR P0000 T00390006
KLNS 311053Z 36009KT 10SM -RA BKN015 OVC037 04/02 A3015 RMK AO2 RAE22B47 SLP210 P0000 T00390017
KLNS 311038Z AUTO 33008KT 10SM BKN013 OVC035 04/02 A3014 RMK AO2 RAE22 P0000 T00440017
KLNS 310953Z AUTO 32008KT 10SM -RA FEW011 FEW017 OVC034 05/03 A3012 RMK AO2 SLP201 P0000 T00500028
KLNS 310853Z AUTO 33012G17KT 10SM -RA SCT018 OVC028 07/03 A3010 RMK AO2 RAB49 SLP192 P0000 60000 T00720033 53015
KLNS 310815Z AUTO 35007KT 10SM SCT017 BKN028 OVC050 08/04 A3007 RMK AO2 T00830039
KLNS 310753Z AUTO 35008KT 10SM OVC050 08/04 A3006 RMK AO2 SLP179 T00830044
KLNS 310653Z AUTO 00000KT 10SM OVC044 07/04 A3005 RMK AO2 SLP175 T00720044
KLNS 310553Z AUTO 00000KT 10SM OVC043 07/04 A3005 RMK AO2 SLP177 60000 T00720039 10100 20044 55009
KLNS 310453Z AUTO 12006KT 10SM SCT050 07/03 A3004 RMK AO2 RAB19E35 SLP174 P0000 T00670033 401280011
KLNS 310353Z 00000KT 10SM BKN060 OVC080 08/03 A3008 RMK AO2 SLP186 T00830033
KLNS 310253Z 00000KT 10SM OVC045 10/04 A3008 RMK AO2 SLP187 T01000039 50002
KLNS 310153Z 24004KT 10SM BKN047 OVC055 10/04 A3008 RMK AO2 SLP189 T01000039
KLNS 310053Z 00000KT 10SM FEW110 08/03 A3008 RMK AO2 SLP189 T00780033
KLNS 302353Z 17005KT 10SM OVC100 09/04 A3007 RMK AO2 SLP186 T00940039 10128 20089 50003
KLNS 302253Z 15007KT 10SM SCT049 09/04 A3009 RMK AO2 SLP190 T00940039
KLNS 302153Z 23004KT 10SM OVC041 12/04 A3009 RMK AO2 SLP191 T01220044
KLNS 302053Z VRB06KT 10SM SCT035 13/04 A3007 RMK AO2 SLP183 T01280044 55019
KLNS 301953Z 15005KT 10SM FEW047 12/04 A3004 RMK AO2 PRESFR SLP175 T01220044
KLNS 301853Z 20007KT 10SM OVC044 12/04 A3009 RMK AO2 SLP192 T01170044
KLNS 301753Z 20005KT 10SM OVC044 11/04 A3012 RMK AO2 SLP203 T01060044 10106 20011 58022
KLNS 301653Z 22004KT 10SM OVC049 10/04 A3017 RMK AO2 SLP217 T01000044
KLNS 301553Z 00000KT 10SM OVC046 07/04 A3019 RMK AO2 SLP225 T00720039
KLNS 301453Z 05003KT 7SM BKN047 04/03 A3019 RMK AO2 SLP226 T00440028 52008
KLNS 301353Z 00000KT 8SM OVC048 03/02 A3019 RMK AO2 SLP226 T00330022
KLNS 301253Z 12004KT 6SM BR CLR 02/01 A3016 RMK AO2 SLP217 T00170006
KLNS 301153Z 00000KT 6SM BR CLR 02/01 A3016 RMK AO2 SLP216 T00220011 10039 20017 58004
KLNS 301053Z COR 00000KT 8SM CLR 02/01 A3017 RMK AO2 SLP218 T00170006
KLNS 300953Z AUTO 00000KT 8SM CLR 03/02 A3017 RMK AO2 SLP219 T00330017
KLNS 311757Z 3118/0118 34007KT 6SM -SN BR SCT030 OVC040 
     FM312100 34007KT P6SM SCT035 BKN060 
     FM010500 32005KT 6SM -SN BR OVC035 
     FM011200 32008KT P6SM BKN035